Time;durP1;ratioP1;P1;durP2;ratioP2;P2;SDS_P1;SDS_P2;PMS_P1;PMS_P2;Temp;Humidity;BMP_temperature;BMP_pressure;BME280_temperature;BME280_humidity;BME280_pressure;Samples;Min_cycle;Max_cycle;Signal;HPM_P1;HPM_P2
2021/10/08 00:02:00;;;;;;;5.90;3.17;;;;;;;10.54;83.03;99075.31;4988266;28;20038;-57
2021/10/08 00:04:25;;;;;;;4.70;2.97;;;;;;;12.18;86.70;99071.81;4989991;28;20045;-57
2021/10/08 00:06:50;;;;;;;6.20;2.67;;;;;;;11.63;86.85;99069.88;4992784;28;20049;-58
2021/10/08 00:09:16;;;;;;;4.90;3.10;;;;;;;11.20;79.35;99068.44;4991410;28;20037;-57
2021/10/08 00:11:41;;;;;;;5.60;3.30;;;;;;;11.08;81.03;99064.41;4990402;28;20125;-57
2021/10/08 00:14:07;;;;;;;7.38;3.40;;;;;;;9.49;84.82;99081.88;4989622;28;20068;-57
2021/10/08 00:16:33;;;;;;;5.68;3.47;;;;;;;9.43;83.71;99081.09;4991788;28;20514;-58
2021/10/08 00:18:58;;;;;;;5.30;3.55;;;;;;;9.33;84.77;99076.94;4988835;28;20065;-58
2021/10/08 00:21:24;;;;;;;5.95;3.33;;;;;;;9.29;85.48;99084.88;4988777;28;20531;-59
2021/10/08 00:23:50;;;;;;;8.10;3.90;;;;;;;9.89;83.76;99075.84;4990385;28;20109;-58
2021/10/08 00:26:16;;;;;;;4.82;3.00;;;;;;;10.14;88.00;99077.03;4988714;28;20093;-57
2021/10/08 00:28:41;;;;;;;10.20;4.10;;;;;;;9.76;84.35;99080.47;4990639;28;20010;-57
2021/10/08 00:31:06;;;;;;;7.00;3.83;;;;;;;10.16;82.18;99072.69;4987797;28;20042;-59
2021/10/08 00:33:32;;;;;;;4.70;3.10;;;;;;;10.94;87.01;99069.13;4989981;28;20030;-58
2021/10/08 00:35:57;;;;;;;6.57;3.90;;;;;;;9.87;83.02;99069.81;4989566;28;20073;-57
2021/10/08 00:38:22;;;;;;;5.85;4.40;;;;;;;9.11;86.23;99078.22;4989371;28;20392;-58
2021/10/08 00:40:48;;;;;;;7.25;4.75;;;;;;;9.57;86.65;99069.56;4987864;28;20126;-58
2021/10/08 00:43:20;;;;;;;5.78;3.40;;;;;;;10.09;86.69;99084.13;4988208;28;20018;-58
2021/10/08 00:45:46;;;;;;;4.35;2.90;;;;;;;11.08;87.68;99071.38;4987689;28;20058;-59
2021/10/08 00:48:12;;;;;;;5.20;3.00;;;;;;;12.11;88.03;99077.25;4987958;28;20421;-58
2021/10/08 00:50:40;;;;;;;5.93;3.72;;;;;;;11.68;82.72;99072.38;4988562;28;20535;-57
2021/10/08 00:53:06;;;;;;;4.07;2.67;;;;;;;12.96;86.44;99061.47;4986674;28;20030;-57
2021/10/08 00:55:39;;;;;;;4.13;2.60;;;;;;;12.42;90.26;99071.03;4990416;28;20041;-58
2021/10/08 00:58:05;;;;;;;4.15;2.60;;;;;;;12.13;85.56;99072.81;4990764;28;20026;-57
2021/10/08 01:00:31;;;;;;;5.07;3.53;;;;;;;10.12;78.97;99068.41;4990310;28;21167;-57
2021/10/08 01:02:56;;;;;;;4.13;2.80;;;;;;;10.90;85.41;99067.47;4989053;28;20080;-57
2021/10/08 01:05:21;;;;;;;4.13;2.70;;;;;;;11.73;85.97;99071.34;4989569;28;20048;-57
2021/10/08 01:07:49;;;;;;;7.97;3.90;;;;;;;10.67;80.05;99075.88;4988182;28;20116;-57
2021/10/08 01:10:15;;;;;;;5.50;3.38;;;;;;;9.58;83.60;99069.53;4989108;28;20030;-57
2021/10/08 01:12:40;;;;;;;6.72;4.10;;;;;;;8.97;87.04;99073.25;4986996;28;20040;-57
2021/10/08 01:15:07;;;;;;;6.35;4.20;;;;;;;9.16;84.80;99071.22;4988367;28;20022;-59
2021/10/08 01:17:33;;;;;;;7.88;3.70;;;;;;;9.56;85.26;99075.66;4990424;28;20021;-57
2021/10/08 01:20:07;;;;;;;7.50;4.40;;;;;;;9.00;86.05;99073.22;4988854;28;20029;-58
2021/10/08 01:22:32;;;;;;;5.25;3.20;;;;;;;9.98;86.95;99067.84;4989186;28;20403;-57
2021/10/08 01:24:57;;;;;;;6.40;4.28;;;;;;;9.42;83.64;99071.56;4989267;28;20026;-57
2021/10/08 01:27:23;;;;;;;6.35;4.32;;;;;;;9.18;84.63;99074.63;4988271;28;20089;-57
2021/10/08 01:29:52;;;;;;;8.07;4.18;;;;;;;8.71;86.49;99071.09;4989036;28;20022;-58
2021/10/08 01:32:17;;;;;;;6.30;4.10;;;;;;;8.77;86.66;99066.66;4988968;28;20534;-59
2021/10/08 01:34:43;;;;;;;8.80;4.60;;;;;;;8.83;86.88;99069.16;4990240;28;20021;-59
2021/10/08 01:37:08;;;;;;;11.02;4.75;;;;;;;8.70;86.80;99069.41;4986813;28;20061;-58
2021/10/08 01:39:34;;;;;;;4.90;3.28;;;;;;;10.18;88.29;99063.06;4987094;28;20518;-57
2021/10/08 01:41:59;;;;;;;8.60;4.65;;;;;;;8.96;87.77;99064.59;4988459;28;20046;-57
2021/10/08 01:44:24;;;;;;;8.43;4.68;;;;;;;9.23;88.85;99068.47;4988486;28;20601;-58
2021/10/08 01:46:50;;;;;;;10.70;4.63;;;;;;;9.52;85.78;99050.56;4987197;28;20073;-57
2021/10/08 01:49:15;;;;;;;7.43;4.80;;;;;;;9.32;86.28;99058.75;4987956;28;20029;-57
2021/10/08 01:51:41;;;;;;;7.05;4.70;;;;;;;9.26;86.43;99059.72;4989697;28;20042;-58
2021/10/08 01:54:06;;;;;;;7.18;4.78;;;;;;;9.60;85.82;99056.47;4987222;28;20036;-57
2021/10/08 01:56:31;;;;;;;6.70;4.78;;;;;;;9.95;84.73;99050.53;4990149;28;20038;-58
2021/10/08 01:58:58;;;;;;;5.70;4.05;;;;;;;10.29;86.96;99041.09;4989310;28;20022;-58
2021/10/08 02:01:24;;;;;;;6.05;4.18;;;;;;;10.15;83.28;99046.63;4986541;28;20125;-56
2021/10/08 02:03:50;;;;;;;5.03;3.28;;;;;;;10.30;87.33;99041.06;4987005;28;20117;-57
2021/10/08 02:06:16;;;;;;;4.75;3.00;;;;;;;10.58;88.37;99046.50;4987078;28;20026;-58
2021/10/08 02:08:42;;;;;;;7.72;4.20;;;;;;;9.36;86.31;99050.00;4987706;28;20518;-58
2021/10/08 02:11:07;;;;;;;8.52;4.82;;;;;;;8.78;88.83;99046.69;4987464;28;20042;-57
2021/10/08 02:13:32;;;;;;;6.28;4.55;;;;;;;8.63;89.16;99053.88;4987723;28;20026;-57
2021/10/08 02:15:57;;;;;;;7.70;5.00;;;;;;;8.71;88.09;99051.16;4988226;28;20034;-57
2021/10/08 02:18:23;;;;;;;8.32;4.95;;;;;;;9.05;87.04;99048.81;4986583;28;20026;-59
2021/10/08 02:20:48;;;;;;;7.63;5.25;;;;;;;8.97;86.94;99055.03;4986261;28;20659;-59
2021/10/08 02:23:13;;;;;;;6.35;4.07;;;;;;;9.37;89.66;99042.16;4986089;28;20380;-60
2021/10/08 02:25:39;;;;;;;5.28;3.50;;;;;;;9.94;89.20;99042.72;4987916;28;20027;-59
2021/10/08 02:28:04;;;;;;;7.32;4.00;;;;;;;9.49;86.00;99040.22;4988341;28;20116;-61
2021/10/08 02:30:30;;;;;;;7.35;4.95;;;;;;;8.99;87.01;99046.34;4988567;28;20769;-60
2021/10/08 02:32:55;;;;;;;5.68;3.60;;;;;;;10.22;91.32;99038.63;4987683;28;20030;-59
2021/10/08 02:35:21;;;;;;;6.97;3.95;;;;;;;10.49;84.52;99038.03;4987087;28;20030;-59
2021/10/08 02:37:46;;;;;;;5.53;3.50;;;;;;;10.51;82.79;99039.75;4985859;28;20029;-60
2021/10/08 02:40:12;;;;;;;7.75;4.18;;;;;;;10.25;81.69;99039.44;4987709;28;20135;-60
2021/10/08 02:42:38;;;;;;;5.35;4.03;;;;;;;9.73;83.48;99038.84;4988429;28;20029;-58
2021/10/08 02:45:04;;;;;;;5.20;3.53;;;;;;;10.14;82.46;99037.09;4987993;28;20553;-60
2021/10/08 02:47:29;;;;;;;4.97;3.63;;;;;;;10.17;82.10;99034.41;4988713;28;20034;-59
2021/10/08 02:49:54;;;;;;;5.55;3.60;;;;;;;10.23;82.00;99034.25;4987704;28;20594;-59
2021/10/08 02:52:20;;;;;;;6.78;4.20;;;;;;;9.78;82.80;99044.81;4985731;28;20072;-61
2021/10/08 02:54:45;;;;;;;5.95;3.50;;;;;;;9.77;85.24;99040.50;4987701;28;20533;-57
2021/10/08 02:57:10;;;;;;;4.05;2.85;;;;;;;10.72;91.80;99042.72;4988516;28;20510;-57
2021/10/08 02:59:36;;;;;;;5.60;3.08;;;;;;;10.91;84.61;99041.34;4987080;28;20080;-58
2021/10/08 03:02:01;;;;;;;7.72;4.57;;;;;;;9.45;83.24;99040.25;4990557;28;20041;-57
2021/10/08 03:04:26;;;;;;;6.38;3.72;;;;;;;9.59;84.16;99040.00;4991666;28;20025;-57
2021/10/08 03:06:52;;;;;;;7.80;4.95;;;;;;;8.82;85.20;99043.16;4990525;28;20081;-57
2021/10/08 03:09:17;;;;;;;7.53;5.28;;;;;;;8.54;87.36;99043.63;4988957;28;20045;-58
2021/10/08 03:11:43;;;;;;;6.53;4.75;;;;;;;8.90;86.50;99040.44;4989514;28;20049;-58
2021/10/08 03:14:08;;;;;;;5.82;3.42;;;;;;;9.90;85.83;99041.09;4991118;28;20046;-59
2021/10/08 03:16:34;;;;;;;5.40;3.42;;;;;;;10.58;86.82;99035.22;4991333;28;20537;-57
2021/10/08 03:18:59;;;;;;;5.93;3.95;;;;;;;10.51;84.21;99037.13;4991976;28;20038;-57
2021/10/08 03:21:25;;;;;;;5.97;4.32;;;;;;;9.55;82.00;99035.72;4990511;28;20073;-57
2021/10/08 03:23:50;;;;;;;6.65;4.88;;;;;;;9.26;83.53;99029.34;4992139;28;20432;-58
2021/10/08 03:26:15;;;;;;;9.57;4.13;;;;;;;9.70;85.92;99031.94;4989978;28;20077;-58
2021/10/08 03:28:41;;;;;;;11.05;4.82;;;;;;;9.56;82.33;99031.38;4990667;28;20127;-57
2021/10/08 03:31:06;;;;;;;7.75;3.38;;;;;;;10.66;87.40;99022.84;4987890;28;20038;-58
2021/10/08 03:33:32;;;;;;;6.53;3.90;;;;;;;8.97;84.64;99032.50;4989235;28;20455;-57
2021/10/08 03:35:57;;;;;;;5.15;3.83;;;;;;;8.95;83.98;99034.28;4989090;28;20042;-59
2021/10/08 03:38:23;;;;;;;4.40;3.00;;;;;;;10.66;89.14;99032.41;4991773;28;20121;-58
2021/10/08 03:41:21;;;;;;;6.18;3.25;;;;;;;10.06;83.50;99026.84;4989562;28;20039;-59
2021/10/08 03:43:41;;;;;;;6.05;3.22;;;;;;;11.27;84.82;99036.03;4989577;28;20041;-58
2021/10/08 03:46:09;;;;;;;4.40;3.15;;;;;;;10.09;83.57;99047.63;4991977;28;20137;-58
2021/10/08 03:49:02;;;;;;;6.10;3.42;;;;;;;10.77;81.97;99036.47;4988448;28;20033;-57
2021/10/08 03:51:28;;;;;;;;;;;;;;;11.25;86.00;99039.59;4993038;28;20084;-57
2021/10/08 03:53:53;;;;;;;6.72;3.08;;;;;;;11.28;86.72;99042.97;4990408;28;19919;-57
2021/10/08 03:56:18;;;;;;;6.15;3.83;;;;;;;9.63;79.59;99043.38;4990164;28;20037;-57
2021/10/08 03:58:44;;;;;;;4.65;3.22;;;;;;;9.93;82.21;99041.03;4990722;28;20045;-58
2021/10/08 04:01:09;;;;;;;6.60;3.20;;;;;;;10.47;85.93;99038.06;4988194;28;20108;-58
2021/10/08 04:03:37;;;;;;;5.30;2.90;;;;;;;11.79;86.82;99044.16;4990879;28;20068;-58
2021/10/08 04:06:03;;;;;;;6.60;3.28;;;;;;;10.78;84.69;99043.41;4988614;28;20071;-57
2021/10/08 04:08:28;;;;;;;5.68;4.10;;;;;;;9.36;79.35;99048.25;4991634;28;20022;-59
2021/10/08 04:10:53;;;;;;;5.68;3.63;;;;;;;9.20;83.31;99049.44;4988813;28;20050;-58
2021/10/08 04:13:19;;;;;;;5.45;3.40;;;;;;;9.29;82.43;99049.25;4992355;28;20033;-58
2021/10/08 04:15:45;;;;;;;7.80;3.60;;;;;;;10.21;77.51;99036.91;4988178;28;20113;-58
2021/10/08 04:18:13;;;;;;;7.05;2.70;;;;;;;11.87;82.22;99036.97;4992090;28;20033;-58
2021/10/08 04:20:40;;;;;;;4.25;3.03;;;;;;;11.18;75.25;99041.53;4990082;28;20041;-57
2021/10/08 04:23:05;;;;;;;5.28;3.50;;;;;;;9.68;86.13;99041.53;4989111;28;20041;-59
2021/10/08 04:25:31;;;;;;;6.88;4.47;;;;;;;8.89;80.94;99044.78;4990283;28;20391;-58
2021/10/08 04:27:57;;;;;;;6.93;4.10;;;;;;;8.92;83.21;99044.72;4989506;28;20030;-57
2021/10/08 04:30:22;;;;;;;4.60;3.40;;;;;;;9.32;89.31;99044.00;4990440;28;20663;-58
2021/10/08 04:32:48;;;;;;;4.72;3.45;;;;;;;10.00;85.40;99032.19;4992342;28;20021;-57
2021/10/08 04:35:14;;;;;;;7.35;3.83;;;;;;;10.83;80.41;99032.00;4988323;28;20376;-57
2021/10/08 04:37:39;;;;;;;4.90;3.38;;;;;;;10.20;86.66;99045.63;4986994;28;20835;-58
2021/10/08 04:40:05;;;;;;;5.05;3.17;;;;;;;11.10;82.04;99040.84;4989577;28;20033;-58
2021/10/08 04:42:31;;;;;;;4.10;3.05;;;;;;;11.69;84.16;99038.34;4989075;28;20144;-57
2021/10/08 04:44:57;;;;;;;4.70;3.25;;;;;;;10.03;78.41;99047.75;4990455;28;20026;-58
2021/10/08 04:47:22;;;;;;;7.20;4.13;;;;;;;9.20;82.16;99050.28;4989239;28;20049;-59
2021/10/08 04:49:48;;;;;;;8.20;4.53;;;;;;;9.34;81.57;99047.44;4988284;28;20030;-59
2021/10/08 04:52:13;;;;;;;4.75;3.60;;;;;;;10.15;81.08;99055.31;4989225;28;20045;-58
2021/10/08 04:54:38;;;;;;;5.75;4.18;;;;;;;8.88;84.17;99058.69;4991040;28;20034;-59
2021/10/08 04:57:05;;;;;;;6.07;3.50;;;;;;;9.98;82.42;99057.41;4989025;28;20050;-59
2021/10/08 04:59:30;;;;;;;6.45;4.57;;;;;;;8.98;83.54;99057.63;4991125;28;20030;-59
2021/10/08 05:01:55;;;;;;;12.38;5.03;;;;;;;8.50;84.41;99057.56;4984832;28;20045;-58
2021/10/08 05:04:20;;;;;;;13.73;5.32;;;;;;;8.58;86.83;99058.28;4993970;28;20026;-58
2021/10/08 05:06:46;;;;;;;10.00;5.10;;;;;;;7.87;87.72;99061.03;4998695;28;20467;-57
2021/10/08 05:09:11;;;;;;;9.75;5.43;;;;;;;8.07;87.44;99068.56;4989443;28;20866;-58
2021/10/08 05:11:37;;;;;;;8.75;5.65;;;;;;;8.48;85.44;99065.38;4991855;28;20563;-59
2021/10/08 05:14:02;;;;;;;5.85;3.92;;;;;;;9.88;83.97;99064.56;4989189;28;20074;-60
2021/10/08 05:16:29;;;;;;;9.68;4.90;;;;;;;8.72;84.20;99065.88;4988766;28;20050;-58
2021/10/08 05:18:55;;;;;;;12.23;6.03;;;;;;;8.41;86.83;99068.91;4992842;28;20088;-57
2021/10/08 05:21:20;;;;;;;8.02;5.20;;;;;;;8.98;85.31;99064.56;4987463;28;20386;-60
2021/10/08 05:23:46;;;;;;;8.13;4.72;;;;;;;9.46;86.47;99061.94;4990727;28;20026;-58
2021/10/08 05:26:11;;;;;;;9.23;4.70;;;;;;;9.82;83.09;99065.56;4990003;28;20037;-58
2021/10/08 05:28:37;;;;;;;7.93;4.88;;;;;;;9.04;85.20;99064.47;4989945;28;20033;-59
2021/10/08 05:31:02;;;;;;;10.65;4.65;;;;;;;9.32;84.17;99063.94;4990958;28;20042;-59
2021/10/08 05:33:27;;;;;;;9.20;4.82;;;;;;;9.00;83.96;99068.84;4988422;28;20450;-58
2021/10/08 05:35:53;;;;;;;7.53;4.75;;;;;;;8.90;86.08;99062.13;4989123;28;20034;-60
2021/10/08 05:38:19;;;;;;;6.15;4.38;;;;;;;9.44;86.88;99075.00;4990862;28;20029;-59
2021/10/08 05:40:47;;;;;;;10.10;5.10;;;;;;;8.79;85.87;99069.25;4986743;28;20396;-59
2021/10/08 05:43:14;;;;;;;8.85;5.45;;;;;;;9.13;86.24;99066.03;4990581;28;20153;-58
2021/10/08 05:45:40;;;;;;;14.43;5.18;;;;;;;8.96;87.43;99062.00;4990818;28;20833;-59
2021/10/08 05:48:05;;;;;;;9.35;5.40;;;;;;;9.28;85.94;99068.34;4990558;28;20030;-59
2021/10/08 05:50:31;;;;;;;17.40;7.22;;;;;;;9.79;85.26;99065.63;4991530;28;20037;-59
2021/10/08 05:52:56;;;;;;;17.20;6.57;;;;;;;9.31;94.91;99068.31;4989521;28;20044;-59
2021/10/08 05:55:23;;;;;;;7.38;4.88;;;;;;;8.95;87.54;99065.50;4989449;28;20137;-58
2021/10/08 05:57:49;;;;;;;12.52;5.72;;;;;;;9.19;87.14;99068.53;4989207;28;20026;-59
2021/10/08 06:00:14;;;;;;;9.40;5.30;;;;;;;9.37;85.51;99078.59;4990439;28;20096;-58
2021/10/08 06:02:40;;;;;;;13.05;5.43;;;;;;;9.43;88.19;99078.50;4990973;28;20056;-58
2021/10/08 06:05:05;;;;;;;13.40;6.00;;;;;;;9.30;86.37;99079.63;4991705;28;20523;-59
2021/10/08 06:07:31;;;;;;;14.25;7.53;;;;;;;9.44;84.62;99075.00;4989204;28;20431;-59
2021/10/08 06:09:56;;;;;;;11.68;5.93;;;;;;;9.97;85.32;99068.75;4988681;28;20065;-60
2021/10/08 06:12:22;;;;;;;9.73;5.93;;;;;;;9.91;89.80;99068.88;4989959;28;20038;-58
2021/10/08 06:14:47;;;;;;;13.60;7.20;;;;;;;9.63;86.15;99077.25;4990812;28;20512;-59
2021/10/08 06:17:13;;;;;;;11.02;6.32;;;;;;;9.84;83.83;99078.56;4988419;28;20038;-58
2021/10/08 06:19:40;;;;;;;11.40;6.45;;;;;;;9.12;86.69;99077.38;4991818;28;20034;-59
2021/10/08 06:22:06;;;;;;;11.73;7.50;;;;;;;8.92;89.24;99072.50;4989665;28;20043;-58
2021/10/08 06:24:32;;;;;;;11.77;7.65;;;;;;;9.53;87.18;99078.31;4991093;28;20026;-60
2021/10/08 06:26:57;;;;;;;8.57;5.90;;;;;;;9.47;91.06;99086.28;4991623;28;20831;-58
2021/10/08 06:29:23;;;;;;;9.05;5.85;;;;;;;9.19;88.83;99078.94;4990539;28;20518;-59
2021/10/08 06:31:48;;;;;;;8.95;4.78;;;;;;;10.13;90.03;99077.94;4992058;28;20037;-59
2021/10/08 06:34:13;;;;;;;8.55;4.85;;;;;;;9.60;88.46;99080.78;4991494;28;20112;-58
2021/10/08 06:36:39;;;;;;;11.20;6.18;;;;;;;9.20;90.17;99080.66;4993471;28;20125;-58
2021/10/08 06:39:05;;;;;;;12.15;6.32;;;;;;;8.92;89.78;99082.91;4995045;28;20087;-59
2021/10/08 06:41:30;;;;;;;12.13;6.63;;;;;;;9.62;87.76;99083.34;4995137;28;20039;-59
2021/10/08 06:43:55;;;;;;;10.55;6.22;;;;;;;10.15;89.57;99083.97;4993813;28;20034;-60
2021/10/08 06:46:21;;;;;;;15.15;6.50;;;;;;;9.70;88.91;99086.66;4993795;28;20391;-59
2021/10/08 06:48:46;;;;;;;9.93;6.22;;;;;;;9.63;88.34;99085.06;4990497;28;20025;-59
2021/10/08 06:51:12;;;;;;;10.27;6.70;;;;;;;9.78;87.75;99089.97;4992835;28;20037;-58
2021/10/08 06:53:37;;;;;;;11.65;6.60;;;;;;;10.14;88.73;99087.47;4992835;28;20774;-57
2021/10/08 06:56:03;;;;;;;14.10;6.13;;;;;;;10.12;87.67;99091.00;4995024;28;20403;-58
2021/10/08 06:58:28;;;;;;;13.88;6.65;;;;;;;10.02;87.98;99085.16;4995790;28;20034;-58
2021/10/08 07:00:54;;;;;;;14.75;6.22;;;;;;;10.17;89.58;99091.78;4992726;28;20042;-58
2021/10/08 07:03:22;;;;;;;11.07;6.25;;;;;;;10.23;87.90;99092.47;4993655;28;20034;-59
2021/10/08 07:05:48;;;;;;;11.75;6.43;;;;;;;10.31;88.09;99101.91;4993198;28;20042;-59
2021/10/08 07:08:14;;;;;;;11.15;6.68;;;;;;;10.18;89.05;99093.47;4992877;28;20053;-58
2021/10/08 07:10:40;;;;;;;12.32;6.05;;;;;;;10.15;88.71;99094.41;4991892;28;20447;-58
2021/10/08 07:13:06;;;;;;;9.95;6.50;;;;;;;10.09;89.31;99099.78;4992944;28;20117;-58
2021/10/08 07:15:32;;;;;;;8.73;6.38;;;;;;;10.35;89.24;99101.84;4993085;28;20038;-58
2021/10/08 07:17:58;;;;;;;9.18;6.18;;;;;;;10.47;89.73;99099.84;4995193;28;20037;-60
2021/10/08 07:20:25;;;;;;;10.25;6.38;;;;;;;10.13;88.21;99096.19;4992986;28;20026;-58
2021/10/08 07:22:51;;;;;;;10.07;6.35;;;;;;;10.39;87.79;99086.97;4995526;28;20022;-60
2021/10/08 07:25:17;;;;;;;9.73;6.40;;;;;;;10.38;87.69;99085.25;4993455;28;20396;-59
2021/10/08 07:27:46;;;;;;;10.60;6.45;;;;;;;10.30;88.93;99094.97;4994298;28;20030;-58
2021/10/08 07:30:12;;;;;;;8.68;6.18;;;;;;;10.51;87.85;99096.25;4990559;28;20022;-58
2021/10/08 07:32:37;;;;;;;9.05;5.88;;;;;;;10.52;88.37;99091.00;4994158;28;20030;-59
2021/10/08 07:35:04;;;;;;;10.98;6.80;;;;;;;10.87;86.13;99089.28;4993171;28;20038;-59
2021/10/08 07:37:29;;;;;;;14.63;8.15;;;;;;;11.13;85.84;99085.16;4994424;28;20026;-58
2021/10/08 07:39:56;;;;;;;12.75;7.78;;;;;;;11.20;86.54;99086.72;4991936;28;20443;-59
2021/10/08 07:42:22;;;;;;;11.38;7.78;;;;;;;11.03;85.84;99083.69;4992797;28;20042;-58
2021/10/08 07:44:48;;;;;;;12.45;7.70;;;;;;;11.29;84.63;99086.47;4993373;28;20411;-59
2021/10/08 07:47:14;;;;;;;14.80;8.18;;;;;;;11.21;86.07;99091.03;4991123;28;20526;-58
2021/10/08 07:49:40;;;;;;;12.07;8.25;;;;;;;10.96;87.04;99083.00;4990899;28;20042;-57
2021/10/08 07:52:05;;;;;;;15.55;7.80;;;;;;;11.24;87.88;99093.56;4993402;28;20041;-58
2021/10/08 07:54:30;;;;;;;15.20;7.68;;;;;;;11.74;84.84;99096.59;4990962;28;20025;-58
2021/10/08 07:56:56;;;;;;;15.20;7.05;;;;;;;11.53;85.78;99100.63;4990098;28;20042;-59
2021/10/08 07:59:21;;;;;;;12.38;7.03;;;;;;;12.03;84.68;99094.91;4991635;28;20022;-60
2021/10/08 08:01:47;;;;;;;12.40;6.82;;;;;;;11.72;86.19;99100.97;4999560;28;20173;-60
2021/10/08 08:04:12;;;;;;;12.00;6.97;;;;;;;11.66;86.25;99095.94;4992579;28;20032;-58
2021/10/08 08:06:37;;;;;;;11.50;7.35;;;;;;;12.32;85.22;99096.66;4992524;28;20046;-60
2021/10/08 08:09:03;;;;;;;11.90;6.68;;;;;;;12.01;85.08;99099.31;4992344;28;20030;-59
2021/10/08 08:11:29;;;;;;;9.75;6.78;;;;;;;12.25;84.12;99104.75;4993378;28;20053;-58
2021/10/08 08:13:55;;;;;;;12.65;6.80;;;;;;;12.31;84.45;99094.06;4994505;28;20036;-60
2021/10/08 08:16:21;;;;;;;9.90;6.53;;;;;;;12.59;84.36;99094.09;4991102;28;20046;-59
2021/10/08 08:18:46;;;;;;;12.82;7.00;;;;;;;12.80;84.55;99092.53;4993919;28;20028;-57
2021/10/08 08:21:12;;;;;;;9.57;6.80;;;;;;;13.08;85.58;99092.47;4993144;28;20495;-59
2021/10/08 08:23:37;;;;;;;10.48;6.70;;;;;;;13.28;82.45;99089.16;4992282;28;20061;-58
2021/10/08 08:26:03;;;;;;;10.55;6.90;;;;;;;13.63;82.19;99084.47;4991923;28;20710;-58
2021/10/08 08:28:28;;;;;;;12.20;6.07;;;;;;;13.64;79.97;99088.81;4993061;28;20083;-59
2021/10/08 08:30:54;;;;;;;14.25;6.82;;;;;;;13.46;81.96;99089.47;4989221;28;20542;-58
2021/10/08 08:33:20;;;;;;;13.48;6.53;;;;;;;13.84;80.41;99088.09;4992252;28;20099;-60
2021/10/08 08:35:45;;;;;;;13.10;7.00;;;;;;;13.76;81.23;99084.88;4991502;28;20105;-58
2021/10/08 08:38:11;;;;;;;9.02;5.70;;;;;;;14.16;79.07;99093.88;4992562;28;20049;-58
2021/10/08 08:40:36;;;;;;;13.13;6.75;;;;;;;14.04;80.13;99089.97;4991824;28;20392;-59
2021/10/08 08:43:03;;;;;;;12.40;6.40;;;;;;;14.54;78.71;99082.78;4993224;28;20141;-58
2021/10/08 08:45:29;;;;;;;9.73;6.40;;;;;;;13.96;78.72;99076.28;4999933;28;20045;-59
2021/10/08 08:48:11;;;;;;;11.20;6.82;;;;;;;14.49;78.14;99080.38;4991046;28;20088;-60
2021/10/08 08:50:41;;;;;;;10.77;6.80;;;;;;;14.10;78.70;99077.50;4990553;28;20026;-59
2021/10/08 08:53:07;;;;;;;9.48;6.20;;;;;;;14.84;76.80;99078.13;4992521;28;20704;-59
2021/10/08 08:55:32;;;;;;;9.48;6.40;;;;;;;15.25;75.94;99079.94;4992169;28;20038;-59
2021/10/08 08:57:58;;;;;;;9.57;6.20;;;;;;;15.39;74.52;99074.94;4988208;28;20550;-57
2021/10/08 09:00:23;;;;;;;14.25;6.45;;;;;;;15.57;73.35;99075.91;4991138;28;20117;-59
2021/10/08 09:03:01;;;;;;;11.82;6.55;;;;;;;15.25;75.04;99069.41;4991643;28;20403;-58
2021/10/08 09:05:32;;;;;;;13.48;6.60;;;;;;;15.74;74.02;99067.28;4989827;28;20040;-58
2021/10/08 09:08:03;;;;;;;12.13;6.15;;;;;;;15.12;75.09;99069.94;4990380;28;20105;-58
2021/10/08 09:10:29;;;;;;;9.77;6.00;;;;;;;15.84;71.67;99065.94;4991816;28;20037;-59
2021/10/08 09:12:58;;;;;;;8.82;5.68;;;;;;;16.57;70.87;99069.53;4991580;28;20577;-59
2021/10/08 09:15:29;;;;;;;10.93;6.43;;;;;;;16.81;68.65;99071.03;4991455;28;20069;-59
2021/10/08 09:18:08;;;;;;;10.50;5.82;;;;;;;16.71;69.73;99071.50;4992031;28;20026;-58
2021/10/08 09:20:35;;;;;;;11.27;6.40;;;;;;;17.23;67.94;99073.31;4993013;28;20049;-57
2021/10/08 09:23:01;;;;;;;10.18;6.20;;;;;;;16.83;67.48;99071.84;4990937;28;20026;-59
2021/10/08 09:25:36;;;;;;;9.07;5.80;;;;;;;17.47;65.95;99071.19;4993563;28;20048;-58
2021/10/08 09:28:04;;;;;;;10.48;6.43;;;;;;;17.27;66.35;99066.13;4991269;28;20037;-58
2021/10/08 09:30:48;;;;;;;11.00;6.90;;;;;;;16.97;67.77;99069.38;4992964;28;20507;-58
2021/10/08 09:33:19;;;;;;;9.25;6.00;;;;;;;17.19;67.73;99066.50;4992256;28;20117;-59
2021/10/08 09:35:47;;;;;;;9.07;6.10;;;;;;;17.86;65.11;99066.56;4991710;28;20065;-59
2021/10/08 09:38:15;;;;;;;9.98;6.95;;;;;;;17.34;66.76;99065.72;4992064;28;20026;-58
2021/10/08 09:40:55;;;;;;;14.55;6.80;;;;;;;17.37;67.33;99074.38;4994518;28;20418;-57
2021/10/08 09:43:29;;;;;;;9.55;6.50;;;;;;;17.31;66.77;99070.28;4993687;28;20091;-59
2021/10/08 09:45:58;;;;;;;15.80;6.38;;;;;;;18.16;64.76;99064.06;4993346;28;20038;-59
2021/10/08 09:48:31;;;;;;;11.35;6.75;;;;;;;18.36;63.84;99065.59;4992283;28;20081;-57
2021/10/08 09:50:57;;;;;;;13.25;6.35;;;;;;;18.03;62.92;99058.59;4992313;28;20030;-58
2021/10/08 09:53:23;;;;;;;14.95;6.85;;;;;;;18.82;62.57;99063.00;4994657;28;20048;-59
2021/10/08 09:55:48;;;;;;;10.90;6.70;;;;;;;18.06;62.18;99068.13;4992639;28;20073;-59
2021/10/08 09:58:13;;;;;;;10.57;6.47;;;;;;;18.65;61.92;99055.97;4992893;28;20114;-57
2021/10/08 10:00:47;;;;;;;14.07;6.22;;;;;;;19.21;60.63;99058.09;4991734;28;20046;-58
2021/10/08 10:03:15;;;;;;;8.90;6.43;;;;;;;17.47;63.52;99055.38;4991308;28;20033;-58
2021/10/08 10:05:41;;;;;;;14.50;6.70;;;;;;;18.26;62.57;99048.53;4992816;28;20038;-59
2021/10/08 10:08:08;;;;;;;9.93;5.55;;;;;;;20.18;57.29;99058.31;4991187;28;20061;-58
2021/10/08 10:10:35;;;;;;;8.18;5.65;;;;;;;21.30;54.15;99049.22;4995797;28;20104;-60
2021/10/08 10:13:03;;;;;;;8.35;6.20;;;;;;;20.74;53.41;99047.66;4996503;28;20414;-58
2021/10/08 10:15:29;;;;;;;8.75;6.10;;;;;;;22.42;50.79;99044.00;4994217;28;21018;-60
2021/10/08 10:17:56;;;;;;;8.15;5.70;;;;;;;22.53;51.20;99043.22;4995030;28;20516;-59
2021/10/08 10:20:22;;;;;;;10.25;6.22;;;;;;;21.44;51.96;99045.63;4993688;28;20081;-59
2021/10/08 10:22:48;;;;;;;9.00;6.00;;;;;;;23.43;48.14;99040.03;4996192;28;20073;-59
2021/10/08 10:25:14;;;;;;;10.13;5.65;;;;;;;22.88;48.46;99037.94;4995446;28;20116;-59
2021/10/08 10:27:41;;;;;;;10.38;5.70;;;;;;;22.28;49.39;99041.53;4994589;28;20400;-59
2021/10/08 10:30:09;;;;;;;7.43;5.30;;;;;;;22.65;48.81;99038.81;4993704;28;20510;-60
2021/10/08 10:32:35;;;;;;;7.45;5.30;;;;;;;23.88;46.79;99042.75;4994851;28;20030;-59
2021/10/08 10:35:03;;;;;;;10.43;5.60;;;;;;;23.29;48.10;99033.97;4995148;28;20030;-60
2021/10/08 10:37:42;;;;;;;7.43;5.70;;;;;;;23.70;46.56;99030.84;4995894;28;20089;-59
2021/10/08 10:40:22;;;;;;;9.30;6.05;;;;;;;21.43;49.81;99038.63;4992808;28;20683;-59
2021/10/08 10:43:32;;;;;;;8.27;6.20;;;;;;;22.96;47.73;99029.38;4993511;28;20120;-60
2021/10/08 10:46:21;;;;;;;8.30;5.80;;;;;;;22.50;47.80;99020.38;4937172;28;20131;-58
2021/10/08 10:51:58;;;;;;;7.95;5.47;;;;;;;23.40;45.32;99019.00;4984906;28;20038;-61
2021/10/08 10:54:38;;;;;;;9.18;6.07;;;;;;;24.23;43.46;99017.75;4993339;28;20037;-59
2021/10/08 10:57:06;;;;;;;7.53;5.80;;;;;;;22.75;45.79;99013.22;4994814;28;20042;-60
2021/10/08 10:59:34;;;;;;;11.30;6.05;;;;;;;22.44;46.67;99014.66;4995522;28;20089;-59
2021/10/08 11:02:02;;;;;;;7.90;6.20;;;;;;;23.58;44.49;99000.69;4993492;28;20038;-60
2021/10/08 11:04:28;;;;;;;7.38;5.57;;;;;;;23.21;45.11;99009.75;4995220;28;20037;-60
2021/10/08 11:07:07;;;;;;;9.02;5.80;;;;;;;22.76;45.91;99012.25;4993400;28;20042;-60
2021/10/08 11:09:34;;;;;;;9.15;6.53;;;;;;;22.39;47.12;99012.34;4996151;28;20077;-59
2021/10/08 11:12:42;;;;;;;8.63;5.75;;;;;;;21.69;48.44;99016.47;4991972;28;20046;-60
2021/10/08 11:15:16;;;;;;;10.07;5.97;;;;;;;23.10;46.01;99012.38;4995967;28;20026;-58
2021/10/08 11:17:53;;;;;;;8.75;6.30;;;;;;;22.70;47.32;99007.41;4995016;28;20677;-58
2021/10/08 11:20:25;;;;;;;7.80;5.80;;;;;;;22.51;45.72;99011.44;4992120;28;20030;-60
2021/10/08 11:22:52;;;;;;;9.45;6.30;;;;;;;21.47;47.66;99008.31;4993440;28;20950;-60
2021/10/08 11:25:17;;;;;;;10.63;6.22;;;;;;;20.42;49.93;99010.00;5005849;28;20408;-58
2021/10/08 11:27:45;;;;;;;8.48;6.28;;;;;;;20.37;49.50;99012.09;4993479;28;20485;-58
2021/10/08 11:30:11;;;;;;;9.57;6.20;;;;;;;20.29;49.89;99009.06;4993144;28;20107;-60
2021/10/08 11:32:44;;;;;;;8.85;5.78;;;;;;;20.14;51.31;99005.63;4994536;28;20065;-58
2021/10/08 11:35:09;;;;;;;8.70;6.20;;;;;;;19.95;51.33;99008.59;4993659;28;20026;-59
2021/10/08 11:37:42;;;;;;;9.38;6.13;;;;;;;19.80;52.55;99008.63;4991991;28;20030;-58